sensor_id;sensor_type;location;lat;lon;timestamp;P1;durP1;ratioP1;P2;durP2;ratioP2
63050;SDS011;49136;47.416;19.402;2023-12-20T00:02:10;433.77;;;410.17;;
63050;SDS011;49136;47.416;19.402;2023-12-20T00:04:35;436.70;;;413.58;;
63050;SDS011;49136;47.416;19.402;2023-12-20T00:07:01;474.83;;;449.23;;
63050;SDS011;49136;47.416;19.402;2023-12-20T00:09:26;441.92;;;418.02;;
63050;SDS011;49136;47.416;19.402;2023-12-20T00:11:52;420.27;;;397.85;;
63050;SDS011;49136;47.416;19.402;2023-12-20T00:14:17;395.42;;;374.55;;
63050;SDS011;49136;47.416;19.402;2023-12-20T00:16:43;458.48;;;433.90;;
63050;SDS011;49136;47.416;19.402;2023-12-20T00:19:08;479.58;;;453.35;;
63050;SDS011;49136;47.416;19.402;2023-12-20T00:21:33;423.13;;;400.75;;
63050;SDS011;49136;47.416;19.402;2023-12-20T00:23:59;490.38;;;462.65;;
63050;SDS011;49136;47.416;19.402;2023-12-20T00:26:24;497.10;;;469.95;;
63050;SDS011;49136;47.416;19.402;2023-12-20T00:28:50;485.60;;;459.30;;
63050;SDS011;49136;47.416;19.402;2023-12-20T00:31:15;445.67;;;421.98;;
63050;SDS011;49136;47.416;19.402;2023-12-20T00:33:40;355.33;;;337.17;;
63050;SDS011;49136;47.416;19.402;2023-12-20T00:36:08;453.67;;;429.25;;
63050;SDS011;49136;47.416;19.402;2023-12-20T00:38:34;415.35;;;393.52;;
63050;SDS011;49136;47.416;19.402;2023-12-20T00:41:00;463.35;;;438.52;;
63050;SDS011;49136;47.416;19.402;2023-12-20T00:43:25;380.67;;;361.08;;
63050;SDS011;49136;47.416;19.402;2023-12-20T00:45:51;407.05;;;385.65;;
63050;SDS011;49136;47.416;19.402;2023-12-20T00:48:17;422.95;;;400.45;;
63050;SDS011;49136;47.416;19.402;2023-12-20T00:50:42;422.23;;;399.95;;
63050;SDS011;49136;47.416;19.402;2023-12-20T00:53:08;475.65;;;450.13;;
63050;SDS011;49136;47.416;19.402;2023-12-20T00:55:33;322.95;;;306.73;;
63050;SDS011;49136;47.416;19.402;2023-12-20T00:57:58;309.67;;;293.88;;
63050;SDS011;49136;47.416;19.402;2023-12-20T01:00:25;390.88;;;370.52;;
63050;SDS011;49136;47.416;19.402;2023-12-20T01:02:50;406.40;;;385.13;;
63050;SDS011;49136;47.416;19.402;2023-12-20T01:05:16;497.00;;;469.73;;
63050;SDS011;49136;47.416;19.402;2023-12-20T01:07:42;464.58;;;438.92;;
63050;SDS011;49136;47.416;19.402;2023-12-20T01:10:08;463.38;;;438.40;;
63050;SDS011;49136;47.416;19.402;2023-12-20T01:12:34;490.85;;;464.23;;
63050;SDS011;49136;47.416;19.402;2023-12-20T01:15:00;462.67;;;437.77;;
63050;SDS011;49136;47.416;19.402;2023-12-20T01:17:26;512.30;;;483.80;;
63050;SDS011;49136;47.416;19.402;2023-12-20T01:19:51;470.90;;;445.42;;
63050;SDS011;49136;47.416;19.402;2023-12-20T01:22:16;494.75;;;467.83;;
63050;SDS011;49136;47.416;19.402;2023-12-20T01:24:42;484.38;;;458.20;;
63050;SDS011;49136;47.416;19.402;2023-12-20T01:27:07;422.63;;;398.73;;
63050;SDS011;49136;47.416;19.402;2023-12-20T01:29:33;426.13;;;403.02;;
63050;SDS011;49136;47.416;19.402;2023-12-20T01:31:58;480.98;;;454.85;;
63050;SDS011;49136;47.416;19.402;2023-12-20T01:34:23;488.30;;;461.98;;
63050;SDS011;49136;47.416;19.402;2023-12-20T01:36:49;387.20;;;366.10;;
63050;SDS011;49136;47.416;19.402;2023-12-20T01:39:14;476.33;;;450.48;;
63050;SDS011;49136;47.416;19.402;2023-12-20T01:41:40;460.05;;;434.67;;
63050;SDS011;49136;47.416;19.402;2023-12-20T01:44:05;449.08;;;425.15;;
63050;SDS011;49136;47.416;19.402;2023-12-20T01:46:30;442.50;;;418.40;;
63050;SDS011;49136;47.416;19.402;2023-12-20T01:48:56;469.70;;;444.17;;
63050;SDS011;49136;47.416;19.402;2023-12-20T01:51:22;458.50;;;433.77;;
63050;SDS011;49136;47.416;19.402;2023-12-20T01:53:47;376.25;;;355.23;;
63050;SDS011;49136;47.416;19.402;2023-12-20T01:56:14;484.80;;;458.48;;
63050;SDS011;49136;47.416;19.402;2023-12-20T01:58:43;450.77;;;426.45;;
63050;SDS011;49136;47.416;19.402;2023-12-20T02:01:09;466.02;;;440.92;;
63050;SDS011;49136;47.416;19.402;2023-12-20T02:03:35;505.25;;;477.30;;
63050;SDS011;49136;47.416;19.402;2023-12-20T02:06:02;391.92;;;371.17;;
63050;SDS011;49136;47.416;19.402;2023-12-20T02:08:28;476.13;;;450.05;;
63050;SDS011;49136;47.416;19.402;2023-12-20T02:10:54;366.08;;;345.65;;
63050;SDS011;49136;47.416;19.402;2023-12-20T02:13:20;505.40;;;477.38;;
63050;SDS011;49136;47.416;19.402;2023-12-20T02:15:46;491.98;;;464.95;;
63050;SDS011;49136;47.416;19.402;2023-12-20T02:18:11;485.95;;;459.35;;
63050;SDS011;49136;47.416;19.402;2023-12-20T02:20:40;458.08;;;433.02;;
63050;SDS011;49136;47.416;19.402;2023-12-20T02:23:06;461.17;;;436.45;;
63050;SDS011;49136;47.416;19.402;2023-12-20T02:25:31;423.00;;;400.23;;
63050;SDS011;49136;47.416;19.402;2023-12-20T02:27:56;413.10;;;390.77;;
63050;SDS011;49136;47.416;19.402;2023-12-20T02:30:22;496.70;;;469.48;;
63050;SDS011;49136;47.416;19.402;2023-12-20T02:32:49;468.55;;;442.92;;
63050;SDS011;49136;47.416;19.402;2023-12-20T02:35:15;493.90;;;466.80;;
63050;SDS011;49136;47.416;19.402;2023-12-20T02:37:41;487.20;;;460.65;;
63050;SDS011;49136;47.416;19.402;2023-12-20T02:40:06;500.42;;;472.73;;
63050;SDS011;49136;47.416;19.402;2023-12-20T02:42:33;474.33;;;448.30;;
63050;SDS011;49136;47.416;19.402;2023-12-20T02:44:58;468.70;;;443.30;;
63050;SDS011;49136;47.416;19.402;2023-12-20T02:47:23;449.50;;;425.08;;
63050;SDS011;49136;47.416;19.402;2023-12-20T02:49:49;555.47;;;523.58;;
63050;SDS011;49136;47.416;19.402;2023-12-20T02:52:14;491.63;;;464.42;;
63050;SDS011;49136;47.416;19.402;2023-12-20T02:54:40;512.85;;;484.42;;
63050;SDS011;49136;47.416;19.402;2023-12-20T02:57:05;511.30;;;483.17;;
63050;SDS011;49136;47.416;19.402;2023-12-20T02:59:31;502.73;;;475.25;;
63050;SDS011;49136;47.416;19.402;2023-12-20T03:01:57;513.70;;;484.65;;
63050;SDS011;49136;47.416;19.402;2023-12-20T03:04:22;534.75;;;503.48;;
63050;SDS011;49136;47.416;19.402;2023-12-20T03:06:47;495.58;;;468.38;;
63050;SDS011;49136;47.416;19.402;2023-12-20T03:09:13;511.05;;;483.02;;
63050;SDS011;49136;47.416;19.402;2023-12-20T03:11:38;552.50;;;519.05;;
63050;SDS011;49136;47.416;19.402;2023-12-20T03:14:04;503.88;;;476.13;;
63050;SDS011;49136;47.416;19.402;2023-12-20T03:16:29;491.52;;;464.58;;
63050;SDS011;49136;47.416;19.402;2023-12-20T03:18:56;381.27;;;359.80;;
63050;SDS011;49136;47.416;19.402;2023-12-20T03:21:21;501.75;;;474.30;;
63050;SDS011;49136;47.416;19.402;2023-12-20T03:23:47;383.08;;;362.75;;
63050;SDS011;49136;47.416;19.402;2023-12-20T03:26:13;464.90;;;439.63;;
63050;SDS011;49136;47.416;19.402;2023-12-20T03:28:39;471.02;;;445.45;;
63050;SDS011;49136;47.416;19.402;2023-12-20T03:31:04;501.05;;;473.48;;
63050;SDS011;49136;47.416;19.402;2023-12-20T03:33:30;487.85;;;461.30;;
63050;SDS011;49136;47.416;19.402;2023-12-20T03:35:55;519.58;;;490.65;;
63050;SDS011;49136;47.416;19.402;2023-12-20T03:38:21;407.35;;;384.98;;
63050;SDS011;49136;47.416;19.402;2023-12-20T03:40:49;470.85;;;445.48;;
63050;SDS011;49136;47.416;19.402;2023-12-20T03:43:14;499.30;;;472.08;;
63050;SDS011;49136;47.416;19.402;2023-12-20T03:45:40;501.20;;;473.67;;
63050;SDS011;49136;47.416;19.402;2023-12-20T03:48:06;512.63;;;484.25;;
63050;SDS011;49136;47.416;19.402;2023-12-20T03:50:32;509.85;;;481.48;;
63050;SDS011;49136;47.416;19.402;2023-12-20T03:52:57;481.77;;;455.42;;
63050;SDS011;49136;47.416;19.402;2023-12-20T03:55:23;353.00;;;333.80;;
63050;SDS011;49136;47.416;19.402;2023-12-20T03:57:48;475.02;;;449.23;;
63050;SDS011;49136;47.416;19.402;2023-12-20T04:00:14;477.58;;;451.67;;
63050;SDS011;49136;47.416;19.402;2023-12-20T04:02:40;425.60;;;402.65;;
63050;SDS011;49136;47.416;19.402;2023-12-20T04:05:06;422.67;;;398.45;;
63050;SDS011;49136;47.416;19.402;2023-12-20T04:07:33;487.65;;;460.75;;
63050;SDS011;49136;47.416;19.402;2023-12-20T04:09:59;481.90;;;455.38;;
63050;SDS011;49136;47.416;19.402;2023-12-20T04:12:25;472.10;;;446.55;;
63050;SDS011;49136;47.416;19.402;2023-12-20T04:14:51;411.15;;;387.52;;
63050;SDS011;49136;47.416;19.402;2023-12-20T04:17:16;355.88;;;336.00;;
63050;SDS011;49136;47.416;19.402;2023-12-20T04:19:42;494.13;;;467.25;;
63050;SDS011;49136;47.416;19.402;2023-12-20T04:22:08;491.52;;;464.45;;
63050;SDS011;49136;47.416;19.402;2023-12-20T04:24:34;497.00;;;469.35;;
63050;SDS011;49136;47.416;19.402;2023-12-20T04:26:59;510.63;;;482.52;;
63050;SDS011;49136;47.416;19.402;2023-12-20T04:29:25;504.65;;;476.88;;
63050;SDS011;49136;47.416;19.402;2023-12-20T04:31:50;376.73;;;355.67;;
63050;SDS011;49136;47.416;19.402;2023-12-20T04:34:19;510.27;;;482.25;;
63050;SDS011;49136;47.416;19.402;2023-12-20T04:36:44;501.67;;;473.90;;
63050;SDS011;49136;47.416;19.402;2023-12-20T04:39:11;512.05;;;483.70;;
63050;SDS011;49136;47.416;19.402;2023-12-20T04:41:37;497.58;;;469.75;;
63050;SDS011;49136;47.416;19.402;2023-12-20T04:44:02;525.30;;;495.98;;
63050;SDS011;49136;47.416;19.402;2023-12-20T04:46:27;475.30;;;449.15;;
63050;SDS011;49136;47.416;19.402;2023-12-20T04:48:53;483.38;;;456.52;;
63050;SDS011;49136;47.416;19.402;2023-12-20T04:51:18;530.15;;;500.10;;
63050;SDS011;49136;47.416;19.402;2023-12-20T04:53:44;515.95;;;485.50;;
63050;SDS011;49136;47.416;19.402;2023-12-20T04:56:09;602.95;;;566.45;;
63050;SDS011;49136;47.416;19.402;2023-12-20T04:58:35;442.38;;;418.60;;
63050;SDS011;49136;47.416;19.402;2023-12-20T05:01:00;459.17;;;434.00;;
63050;SDS011;49136;47.416;19.402;2023-12-20T05:03:26;669.33;;;624.78;;
63050;SDS011;49136;47.416;19.402;2023-12-20T05:05:52;497.38;;;469.58;;
63050;SDS011;49136;47.416;19.402;2023-12-20T05:08:17;546.88;;;516.00;;
63050;SDS011;49136;47.416;19.402;2023-12-20T05:10:43;610.28;;;573.47;;
63050;SDS011;49136;47.416;19.402;2023-12-20T05:13:08;614.45;;;576.42;;
63050;SDS011;49136;47.416;19.402;2023-12-20T05:15:34;462.70;;;436.80;;
63050;SDS011;49136;47.416;19.402;2023-12-20T05:17:59;274.60;;;258.45;;
63050;SDS011;49136;47.416;19.402;2023-12-20T05:20:25;500.70;;;473.20;;
63050;SDS011;49136;47.416;19.402;2023-12-20T05:22:50;492.83;;;465.83;;
63050;SDS011;49136;47.416;19.402;2023-12-20T05:25:15;498.42;;;470.17;;
63050;SDS011;49136;47.416;19.402;2023-12-20T05:27:41;527.25;;;497.77;;
63050;SDS011;49136;47.416;19.402;2023-12-20T05:30:06;484.15;;;457.05;;
63050;SDS011;49136;47.416;19.402;2023-12-20T05:32:32;411.35;;;388.40;;
63050;SDS011;49136;47.416;19.402;2023-12-20T05:34:57;406.25;;;382.70;;
63050;SDS011;49136;47.416;19.402;2023-12-20T05:37:23;579.95;;;546.13;;
63050;SDS011;49136;47.416;19.402;2023-12-20T05:39:48;609.83;;;572.67;;
63050;SDS011;49136;47.416;19.402;2023-12-20T05:42:14;471.92;;;446.10;;
63050;SDS011;49136;47.416;19.402;2023-12-20T05:44:39;508.75;;;480.50;;
63050;SDS011;49136;47.416;19.402;2023-12-20T05:47:04;495.08;;;467.58;;
63050;SDS011;49136;47.416;19.402;2023-12-20T05:49:30;497.75;;;470.30;;
63050;SDS011;49136;47.416;19.402;2023-12-20T05:51:56;527.92;;;498.25;;
63050;SDS011;49136;47.416;19.402;2023-12-20T05:54:22;456.20;;;430.67;;
63050;SDS011;49136;47.416;19.402;2023-12-20T05:56:48;533.78;;;503.30;;
63050;SDS011;49136;47.416;19.402;2023-12-20T05:59:13;588.83;;;553.80;;
63050;SDS011;49136;47.416;19.402;2023-12-20T06:01:39;561.10;;;528.15;;
63050;SDS011;49136;47.416;19.402;2023-12-20T06:04:04;524.15;;;495.05;;
63050;SDS011;49136;47.416;19.402;2023-12-20T06:06:30;595.25;;;559.60;;
63050;SDS011;49136;47.416;19.402;2023-12-20T06:08:56;487.33;;;460.38;;
63050;SDS011;49136;47.416;19.402;2023-12-20T06:11:21;503.58;;;475.90;;
63050;SDS011;49136;47.416;19.402;2023-12-20T06:13:46;523.13;;;493.95;;
63050;SDS011;49136;47.416;19.402;2023-12-20T06:16:13;509.77;;;481.58;;
63050;SDS011;49136;47.416;19.402;2023-12-20T06:18:39;529.70;;;500.48;;
63050;SDS011;49136;47.416;19.402;2023-12-20T06:21:05;548.45;;;517.60;;
63050;SDS011;49136;47.416;19.402;2023-12-20T06:23:32;514.15;;;485.77;;
63050;SDS011;49136;47.416;19.402;2023-12-20T06:25:57;508.48;;;480.48;;
63050;SDS011;49136;47.416;19.402;2023-12-20T06:28:23;540.03;;;509.55;;
63050;SDS011;49136;47.416;19.402;2023-12-20T06:30:48;547.28;;;515.05;;
63050;SDS011;49136;47.416;19.402;2023-12-20T06:33:14;534.42;;;503.98;;
63050;SDS011;49136;47.416;19.402;2023-12-20T06:35:40;523.60;;;494.60;;
63050;SDS011;49136;47.416;19.402;2023-12-20T06:38:05;522.90;;;493.98;;
63050;SDS011;49136;47.416;19.402;2023-12-20T06:40:31;509.33;;;481.30;;
63050;SDS011;49136;47.416;19.402;2023-12-20T06:42:56;523.90;;;494.10;;
63050;SDS011;49136;47.416;19.402;2023-12-20T06:45:21;481.10;;;454.35;;
63050;SDS011;49136;47.416;19.402;2023-12-20T06:47:47;505.75;;;478.05;;
63050;SDS011;49136;47.416;19.402;2023-12-20T06:50:12;499.98;;;472.92;;
63050;SDS011;49136;47.416;19.402;2023-12-20T06:52:38;507.58;;;479.58;;
63050;SDS011;49136;47.416;19.402;2023-12-20T06:55:04;504.58;;;477.02;;
63050;SDS011;49136;47.416;19.402;2023-12-20T06:57:30;502.48;;;474.90;;
63050;SDS011;49136;47.416;19.402;2023-12-20T06:59:55;517.25;;;488.50;;
63050;SDS011;49136;47.416;19.402;2023-12-20T07:02:21;541.47;;;510.63;;
63050;SDS011;49136;47.416;19.402;2023-12-20T07:04:47;514.15;;;485.77;;
63050;SDS011;49136;47.416;19.402;2023-12-20T07:07:13;527.70;;;498.23;;
63050;SDS011;49136;47.416;19.402;2023-12-20T07:09:38;508.42;;;480.27;;
63050;SDS011;49136;47.416;19.402;2023-12-20T07:12:06;514.22;;;485.98;;
63050;SDS011;49136;47.416;19.402;2023-12-20T07:14:31;515.17;;;486.90;;
63050;SDS011;49136;47.416;19.402;2023-12-20T07:16:56;514.05;;;485.38;;
63050;SDS011;49136;47.416;19.402;2023-12-20T07:19:22;526.22;;;496.52;;
63050;SDS011;49136;47.416;19.402;2023-12-20T07:21:47;551.35;;;518.00;;
63050;SDS011;49136;47.416;19.402;2023-12-20T07:24:13;492.77;;;465.98;;
63050;SDS011;49136;47.416;19.402;2023-12-20T07:26:38;502.95;;;475.52;;
63050;SDS011;49136;47.416;19.402;2023-12-20T07:29:04;481.85;;;455.60;;
63050;SDS011;49136;47.416;19.402;2023-12-20T07:31:30;567.70;;;534.72;;
63050;SDS011;49136;47.416;19.402;2023-12-20T07:33:55;525.90;;;496.40;;
63050;SDS011;49136;47.416;19.402;2023-12-20T07:36:21;504.77;;;476.85;;
63050;SDS011;49136;47.416;19.402;2023-12-20T07:38:46;496.50;;;469.40;;
63050;SDS011;49136;47.416;19.402;2023-12-20T07:41:12;495.25;;;468.15;;
63050;SDS011;49136;47.416;19.402;2023-12-20T07:43:37;446.13;;;421.50;;
63050;SDS011;49136;47.416;19.402;2023-12-20T07:46:06;473.65;;;447.95;;
63050;SDS011;49136;47.416;19.402;2023-12-20T07:48:36;492.98;;;465.15;;
63050;SDS011;49136;47.416;19.402;2023-12-20T07:51:02;765.47;;;709.78;;
63050;SDS011;49136;47.416;19.402;2023-12-20T07:53:27;520.47;;;491.83;;
63050;SDS011;49136;47.416;19.402;2023-12-20T07:55:53;557.25;;;525.08;;
63050;SDS011;49136;47.416;19.402;2023-12-20T07:58:19;529.53;;;499.77;;
63050;SDS011;49136;47.416;19.402;2023-12-20T08:00:44;537.90;;;507.75;;
63050;SDS011;49136;47.416;19.402;2023-12-20T08:03:09;523.10;;;494.35;;
63050;SDS011;49136;47.416;19.402;2023-12-20T08:05:35;525.85;;;496.08;;
63050;SDS011;49136;47.416;19.402;2023-12-20T08:08:01;523.50;;;494.45;;
63050;SDS011;49136;47.416;19.402;2023-12-20T08:10:26;534.30;;;504.33;;
63050;SDS011;49136;47.416;19.402;2023-12-20T08:12:54;504.50;;;476.80;;
63050;SDS011;49136;47.416;19.402;2023-12-20T08:15:20;540.03;;;509.67;;
63050;SDS011;49136;47.416;19.402;2023-12-20T08:17:45;528.88;;;498.75;;
63050;SDS011;49136;47.416;19.402;2023-12-20T08:20:11;520.58;;;491.58;;
63050;SDS011;49136;47.416;19.402;2023-12-20T08:22:36;523.60;;;493.73;;
63050;SDS011;49136;47.416;19.402;2023-12-20T08:25:01;712.97;;;660.30;;
63050;SDS011;49136;47.416;19.402;2023-12-20T08:27:27;494.88;;;467.40;;
63050;SDS011;49136;47.416;19.402;2023-12-20T08:29:52;519.47;;;490.50;;
63050;SDS011;49136;47.416;19.402;2023-12-20T08:32:18;497.20;;;470.05;;
63050;SDS011;49136;47.416;19.402;2023-12-20T08:34:43;501.23;;;473.30;;
63050;SDS011;49136;47.416;19.402;2023-12-20T08:37:08;506.40;;;478.13;;
63050;SDS011;49136;47.416;19.402;2023-12-20T08:39:34;514.63;;;486.17;;
63050;SDS011;49136;47.416;19.402;2023-12-20T08:41:59;509.52;;;481.50;;
63050;SDS011;49136;47.416;19.402;2023-12-20T08:44:25;496.67;;;469.23;;
63050;SDS011;49136;47.416;19.402;2023-12-20T08:46:50;502.88;;;473.90;;
63050;SDS011;49136;47.416;19.402;2023-12-20T08:49:16;516.75;;;488.00;;
63050;SDS011;49136;47.416;19.402;2023-12-20T08:51:42;526.88;;;497.33;;
63050;SDS011;49136;47.416;19.402;2023-12-20T08:54:07;500.52;;;473.00;;
63050;SDS011;49136;47.416;19.402;2023-12-20T08:56:33;485.52;;;458.95;;
63050;SDS011;49136;47.416;19.402;2023-12-20T08:58:59;535.05;;;503.55;;
63050;SDS011;49136;47.416;19.402;2023-12-20T09:01:24;482.92;;;455.80;;
63050;SDS011;49136;47.416;19.402;2023-12-20T09:03:50;477.05;;;449.15;;
63050;SDS011;49136;47.416;19.402;2023-12-20T09:06:15;416.27;;;393.02;;
63050;SDS011;49136;47.416;19.402;2023-12-20T09:08:40;478.83;;;452.50;;
63050;SDS011;49136;47.416;19.402;2023-12-20T09:11:06;521.47;;;492.17;;
63050;SDS011;49136;47.416;19.402;2023-12-20T09:13:32;480.20;;;453.52;;
63050;SDS011;49136;47.416;19.402;2023-12-20T09:15:57;525.70;;;495.95;;
63050;SDS011;49136;47.416;19.402;2023-12-20T09:18:23;497.02;;;469.45;;
63050;SDS011;49136;47.416;19.402;2023-12-20T09:20:49;514.97;;;486.27;;
63050;SDS011;49136;47.416;19.402;2023-12-20T09:23:14;544.42;;;513.92;;
63050;SDS011;49136;47.416;19.402;2023-12-20T09:25:40;531.38;;;501.70;;
63050;SDS011;49136;47.416;19.402;2023-12-20T09:28:05;527.33;;;497.52;;
63050;SDS011;49136;47.416;19.402;2023-12-20T09:30:31;495.80;;;468.17;;
63050;SDS011;49136;47.416;19.402;2023-12-20T09:32:56;481.05;;;454.30;;
63050;SDS011;49136;47.416;19.402;2023-12-20T09:35:22;478.88;;;450.60;;
63050;SDS011;49136;47.416;19.402;2023-12-20T09:37:48;532.65;;;502.13;;
63050;SDS011;49136;47.416;19.402;2023-12-20T09:40:14;527.63;;;498.10;;
63050;SDS011;49136;47.416;19.402;2023-12-20T09:45:10;511.08;;;482.77;;
63050;SDS011;49136;47.416;19.402;2023-12-20T09:47:39;561.53;;;528.92;;
63050;SDS011;49136;47.416;19.402;2023-12-20T09:50:06;508.83;;;480.08;;
63050;SDS011;49136;47.416;19.402;2023-12-20T09:52:32;459.50;;;434.05;;
63050;SDS011;49136;47.416;19.402;2023-12-20T09:54:59;536.33;;;506.33;;
63050;SDS011;49136;47.416;19.402;2023-12-20T09:57:26;512.83;;;484.50;;
63050;SDS011;49136;47.416;19.402;2023-12-20T09:59:52;536.58;;;506.60;;
63050;SDS011;49136;47.416;19.402;2023-12-20T10:02:17;533.35;;;502.90;;
63050;SDS011;49136;47.416;19.402;2023-12-20T10:04:49;510.58;;;481.95;;
63050;SDS011;49136;47.416;19.402;2023-12-20T10:07:15;475.58;;;449.73;;
63050;SDS011;49136;47.416;19.402;2023-12-20T10:09:40;519.65;;;490.35;;
63050;SDS011;49136;47.416;19.402;2023-12-20T10:12:07;582.88;;;548.05;;
63050;SDS011;49136;47.416;19.402;2023-12-20T10:14:32;631.95;;;591.83;;
63050;SDS011;49136;47.416;19.402;2023-12-20T10:17:02;518.22;;;488.98;;
63050;SDS011;49136;47.416;19.402;2023-12-20T10:19:31;506.25;;;477.48;;
63050;SDS011;49136;47.416;19.402;2023-12-20T10:21:59;616.30;;;579.00;;
63050;SDS011;49136;47.416;19.402;2023-12-20T10:24:25;531.08;;;501.20;;
63050;SDS011;49136;47.416;19.402;2023-12-20T10:27:05;584.30;;;549.72;;
63050;SDS011;49136;47.416;19.402;2023-12-20T10:29:37;567.95;;;535.38;;
63050;SDS011;49136;47.416;19.402;2023-12-20T10:32:25;535.83;;;505.85;;
63050;SDS011;49136;47.416;19.402;2023-12-20T10:34:52;532.75;;;502.85;;
63050;SDS011;49136;47.416;19.402;2023-12-20T10:37:19;566.33;;;533.88;;
63050;SDS011;49136;47.416;19.402;2023-12-20T10:39:46;576.15;;;542.67;;
63050;SDS011;49136;47.416;19.402;2023-12-20T10:42:15;627.33;;;588.53;;
63050;SDS011;49136;47.416;19.402;2023-12-20T10:44:41;503.08;;;475.02;;
63050;SDS011;49136;47.416;19.402;2023-12-20T10:47:07;494.73;;;465.25;;
63050;SDS011;49136;47.416;19.402;2023-12-20T10:49:36;484.10;;;456.95;;
63050;SDS011;49136;47.416;19.402;2023-12-20T10:52:02;467.75;;;441.20;;
63050;SDS011;49136;47.416;19.402;2023-12-20T10:54:31;388.05;;;367.23;;
63050;SDS011;49136;47.416;19.402;2023-12-20T10:56:57;468.65;;;441.67;;
63050;SDS011;49136;47.416;19.402;2023-12-20T10:59:23;472.50;;;446.08;;
63050;SDS011;49136;47.416;19.402;2023-12-20T11:01:50;342.75;;;324.42;;
63050;SDS011;49136;47.416;19.402;2023-12-20T11:04:31;432.70;;;408.77;;
63050;SDS011;49136;47.416;19.402;2023-12-20T11:09:43;514.33;;;484.95;;
63050;SDS011;49136;47.416;19.402;2023-12-20T11:12:18;493.48;;;465.40;;
63050;SDS011;49136;47.416;19.402;2023-12-20T11:15:06;466.05;;;439.25;;
63050;SDS011;49136;47.416;19.402;2023-12-20T11:17:33;468.05;;;442.02;;
63050;SDS011;49136;47.416;19.402;2023-12-20T11:22:26;457.50;;;431.77;;
63050;SDS011;49136;47.416;19.402;2023-12-20T11:24:57;723.30;;;670.70;;
63050;SDS011;49136;47.416;19.402;2023-12-20T11:27:27;409.00;;;386.58;;
63050;SDS011;49136;47.416;19.402;2023-12-20T11:29:53;387.00;;;365.85;;
63050;SDS011;49136;47.416;19.402;2023-12-20T11:34:59;413.05;;;390.13;;
63050;SDS011;49136;47.416;19.402;2023-12-20T11:37:45;499.20;;;470.58;;
63050;SDS011;49136;47.416;19.402;2023-12-20T11:40:16;448.77;;;421.70;;
63050;SDS011;49136;47.416;19.402;2023-12-20T11:42:45;400.90;;;378.80;;
63050;SDS011;49136;47.416;19.402;2023-12-20T11:45:19;367.73;;;347.98;;
63050;SDS011;49136;47.416;19.402;2023-12-20T11:47:48;374.30;;;354.52;;
63050;SDS011;49136;47.416;19.402;2023-12-20T11:50:16;410.85;;;388.40;;
63050;SDS011;49136;47.416;19.402;2023-12-20T11:52:45;365.17;;;345.95;;
63050;SDS011;49136;47.416;19.402;2023-12-20T11:55:10;401.13;;;378.42;;
63050;SDS011;49136;47.416;19.402;2023-12-20T11:57:36;365.65;;;345.27;;
63050;SDS011;49136;47.416;19.402;2023-12-20T12:00:02;378.08;;;357.38;;
63050;SDS011;49136;47.416;19.402;2023-12-20T12:02:28;338.02;;;319.40;;
63050;SDS011;49136;47.416;19.402;2023-12-20T12:04:54;325.88;;;308.50;;
63050;SDS011;49136;47.416;19.402;2023-12-20T12:07:21;412.55;;;389.92;;
63050;SDS011;49136;47.416;19.402;2023-12-20T12:09:47;348.20;;;329.75;;
63050;SDS011;49136;47.416;19.402;2023-12-20T12:12:13;364.63;;;344.98;;
63050;SDS011;49136;47.416;19.402;2023-12-20T12:14:38;356.80;;;336.95;;
63050;SDS011;49136;47.416;19.402;2023-12-20T12:17:09;406.63;;;384.63;;
63050;SDS011;49136;47.416;19.402;2023-12-20T12:19:36;358.48;;;338.60;;
63050;SDS011;49136;47.416;19.402;2023-12-20T12:24:38;339.48;;;321.23;;
63050;SDS011;49136;47.416;19.402;2023-12-20T12:27:05;294.00;;;278.02;;
63050;SDS011;49136;47.416;19.402;2023-12-20T12:29:32;374.35;;;354.17;;
63050;SDS011;49136;47.416;19.402;2023-12-20T12:31:57;375.45;;;353.63;;
63050;SDS011;49136;47.416;19.402;2023-12-20T12:34:23;345.27;;;326.50;;
63050;SDS011;49136;47.416;19.402;2023-12-20T12:36:48;427.77;;;399.58;;
63050;SDS011;49136;47.416;19.402;2023-12-20T12:39:14;346.27;;;327.50;;
63050;SDS011;49136;47.416;19.402;2023-12-20T12:41:43;332.30;;;314.65;;
63050;SDS011;49136;47.416;19.402;2023-12-20T12:44:08;317.08;;;300.02;;
63050;SDS011;49136;47.416;19.402;2023-12-20T12:46:34;322.10;;;304.80;;
63050;SDS011;49136;47.416;19.402;2023-12-20T12:48:59;342.15;;;323.35;;
63050;SDS011;49136;47.416;19.402;2023-12-20T12:51:25;340.70;;;321.10;;
63050;SDS011;49136;47.416;19.402;2023-12-20T12:53:50;360.65;;;340.80;;
63050;SDS011;49136;47.416;19.402;2023-12-20T12:56:16;300.33;;;284.02;;
63050;SDS011;49136;47.416;19.402;2023-12-20T12:58:42;340.65;;;321.50;;
63050;SDS011;49136;47.416;19.402;2023-12-20T13:01:07;267.27;;;252.35;;
63050;SDS011;49136;47.416;19.402;2023-12-20T13:03:33;305.92;;;288.80;;
63050;SDS011;49136;47.416;19.402;2023-12-20T13:06:00;278.17;;;263.60;;
63050;SDS011;49136;47.416;19.402;2023-12-20T13:08:26;264.05;;;250.38;;
63050;SDS011;49136;47.416;19.402;2023-12-20T13:10:52;300.15;;;283.73;;
63050;SDS011;49136;47.416;19.402;2023-12-20T13:13:17;433.75;;;403.30;;
63050;SDS011;49136;47.416;19.402;2023-12-20T13:15:43;346.67;;;327.58;;
63050;SDS011;49136;47.416;19.402;2023-12-20T13:18:15;368.95;;;348.98;;
63050;SDS011;49136;47.416;19.402;2023-12-20T13:20:41;435.40;;;411.02;;
63050;SDS011;49136;47.416;19.402;2023-12-20T13:23:07;342.17;;;322.92;;
63050;SDS011;49136;47.416;19.402;2023-12-20T13:25:32;379.05;;;356.55;;
63050;SDS011;49136;47.416;19.402;2023-12-20T13:27:58;355.90;;;335.95;;
63050;SDS011;49136;47.416;19.402;2023-12-20T13:30:24;408.25;;;385.80;;
63050;SDS011;49136;47.416;19.402;2023-12-20T13:32:49;407.45;;;384.10;;
63050;SDS011;49136;47.416;19.402;2023-12-20T13:35:15;370.75;;;350.60;;
63050;SDS011;49136;47.416;19.402;2023-12-20T13:37:40;348.38;;;329.02;;
63050;SDS011;49136;47.416;19.402;2023-12-20T13:40:06;361.92;;;342.48;;
63050;SDS011;49136;47.416;19.402;2023-12-20T13:42:32;369.05;;;348.60;;
63050;SDS011;49136;47.416;19.402;2023-12-20T13:44:57;362.52;;;343.25;;
63050;SDS011;49136;47.416;19.402;2023-12-20T13:47:23;376.75;;;353.98;;
63050;SDS011;49136;47.416;19.402;2023-12-20T13:49:48;378.42;;;356.23;;
63050;SDS011;49136;47.416;19.402;2023-12-20T13:52:14;441.33;;;416.08;;